sensor_id;sensor_type;location;lat;lon;timestamp;P1;P2;P0
65556;PMS3003;52200;53.490;14.376;2022-08-19T00:01:49;26.80;23.60;16.00
65556;PMS3003;52200;53.490;14.376;2022-08-19T00:04:16;29.80;24.60;17.00
65556;PMS3003;52200;53.490;14.376;2022-08-19T00:06:44;27.00;22.00;15.40
65556;PMS3003;52200;53.490;14.376;2022-08-19T00:09:12;28.60;24.40;15.00
65556;PMS3003;52200;53.490;14.376;2022-08-19T00:11:39;28.00;22.60;15.00
65556;PMS3003;52200;53.490;14.376;2022-08-19T00:14:06;32.25;29.00;18.75
65556;PMS3003;52200;53.490;14.376;2022-08-19T00:16:33;33.20;28.80;18.60
65556;PMS3003;52200;53.490;14.376;2022-08-19T00:18:59;32.80;29.00;18.60
65556;PMS3003;52200;53.490;14.376;2022-08-19T00:21:25;34.50;29.00;19.00
65556;PMS3003;52200;53.490;14.376;2022-08-19T00:23:54;34.40;29.20;19.00
65556;PMS3003;52200;53.490;14.376;2022-08-19T00:26:22;35.00;29.00;17.60
65556;PMS3003;52200;53.490;14.376;2022-08-19T00:28:47;33.25;28.50;19.00
65556;PMS3003;52200;53.490;14.376;2022-08-19T00:31:13;31.00;28.00;16.75
65556;PMS3003;52200;53.490;14.376;2022-08-19T00:33:38;32.50;28.50;18.25
65556;PMS3003;52200;53.490;14.376;2022-08-19T00:36:06;30.75;26.75;17.75
65556;PMS3003;52200;53.490;14.376;2022-08-19T00:38:34;30.40;26.80;16.80
65556;PMS3003;52200;53.490;14.376;2022-08-19T00:41:00;35.00;28.80;18.00
65556;PMS3003;52200;53.490;14.376;2022-08-19T00:43:26;30.00;27.25;17.50
65556;PMS3003;52200;53.490;14.376;2022-08-19T00:45:52;32.00;28.00;17.60
65556;PMS3003;52200;53.490;14.376;2022-08-19T00:48:18;31.25;27.25;18.25
65556;PMS3003;52200;53.490;14.376;2022-08-19T00:50:46;34.00;29.00;19.00
65556;PMS3003;52200;53.490;14.376;2022-08-19T00:53:14;34.00;28.20;19.20
65556;PMS3003;52200;53.490;14.376;2022-08-19T00:55:47;31.60;27.60;17.00
65556;PMS3003;52200;53.490;14.376;2022-08-19T00:58:16;34.00;29.60;19.00
65556;PMS3003;52200;53.490;14.376;2022-08-19T01:00:44;36.40;31.40;20.80
65556;PMS3003;52200;53.490;14.376;2022-08-19T01:03:12;33.20;29.20;19.80
65556;PMS3003;52200;53.490;14.376;2022-08-19T01:05:41;32.40;28.60;18.20
65556;PMS3003;52200;53.490;14.376;2022-08-19T01:08:08;31.80;28.00;19.00
65556;PMS3003;52200;53.490;14.376;2022-08-19T01:10:37;32.60;28.20;19.00
65556;PMS3003;52200;53.490;14.376;2022-08-19T01:13:06;32.80;27.20;18.40
65556;PMS3003;52200;53.490;14.376;2022-08-19T01:15:40;34.80;29.20;20.00
65556;PMS3003;52200;53.490;14.376;2022-08-19T01:18:10;31.00;27.80;19.00
65556;PMS3003;52200;53.490;14.376;2022-08-19T01:20:37;36.20;30.80;20.20
65556;PMS3003;52200;53.490;14.376;2022-08-19T01:23:05;32.00;29.00;19.00
65556;PMS3003;52200;53.490;14.376;2022-08-19T01:25:32;31.25;28.00;18.50
65556;PMS3003;52200;53.490;14.376;2022-08-19T01:28:02;32.00;27.40;18.80
65556;PMS3003;52200;53.490;14.376;2022-08-19T01:30:30;34.60;29.00;19.40
65556;PMS3003;52200;53.490;14.376;2022-08-19T01:32:57;34.00;29.40;19.20
65556;PMS3003;52200;53.490;14.376;2022-08-19T01:35:25;31.80;28.20;18.00
65556;PMS3003;52200;53.490;14.376;2022-08-19T01:37:54;31.80;27.60;18.00
65556;PMS3003;52200;53.490;14.376;2022-08-19T01:40:24;30.40;27.40;18.60
65556;PMS3003;52200;53.490;14.376;2022-08-19T01:42:52;36.00;29.00;19.00
65556;PMS3003;52200;53.490;14.376;2022-08-19T01:45:19;34.80;29.60;19.80
65556;PMS3003;52200;53.490;14.376;2022-08-19T01:47:46;37.60;31.00;22.00
65556;PMS3003;52200;53.490;14.376;2022-08-19T01:50:12;39.60;32.80;22.60
65556;PMS3003;52200;53.490;14.376;2022-08-19T01:52:41;39.75;33.00;22.00
65556;PMS3003;52200;53.490;14.376;2022-08-19T01:55:10;41.00;34.40;22.00
65556;PMS3003;52200;53.490;14.376;2022-08-19T01:57:37;38.80;32.40;21.80
65556;PMS3003;52200;53.490;14.376;2022-08-19T02:00:07;37.80;31.20;21.00
65556;PMS3003;52200;53.490;14.376;2022-08-19T02:02:35;35.40;29.80;18.80
65556;PMS3003;52200;53.490;14.376;2022-08-19T02:05:01;35.00;29.75;19.75
65556;PMS3003;52200;53.490;14.376;2022-08-19T02:07:26;38.00;31.00;20.75
65556;PMS3003;52200;53.490;14.376;2022-08-19T02:09:53;36.60;31.00;20.00
65556;PMS3003;52200;53.490;14.376;2022-08-19T02:12:20;39.60;31.40;21.00
65556;PMS3003;52200;53.490;14.376;2022-08-19T02:14:45;39.25;31.75;22.00
65556;PMS3003;52200;53.490;14.376;2022-08-19T02:17:11;40.75;34.00;21.25
65556;PMS3003;52200;53.490;14.376;2022-08-19T02:19:37;42.50;33.75;22.00
65556;PMS3003;52200;53.490;14.376;2022-08-19T02:22:02;43.00;32.75;21.00
65556;PMS3003;52200;53.490;14.376;2022-08-19T02:24:28;44.50;34.00;22.00
65556;PMS3003;52200;53.490;14.376;2022-08-19T02:26:53;40.50;31.75;21.50
65556;PMS3003;52200;53.490;14.376;2022-08-19T02:29:19;39.25;32.00;21.00
65556;PMS3003;52200;53.490;14.376;2022-08-19T02:31:44;40.25;33.25;22.00
65556;PMS3003;52200;53.490;14.376;2022-08-19T02:34:10;38.25;31.25;21.00
65556;PMS3003;52200;53.490;14.376;2022-08-19T02:36:35;39.50;32.25;21.75
65556;PMS3003;52200;53.490;14.376;2022-08-19T02:39:01;34.00;30.00;20.25
65556;PMS3003;52200;53.490;14.376;2022-08-19T02:41:30;36.25;31.00;20.75
65556;PMS3003;52200;53.490;14.376;2022-08-19T02:43:58;36.00;31.00;20.80
65556;PMS3003;52200;53.490;14.376;2022-08-19T02:46:27;35.20;29.20;20.00
65556;PMS3003;52200;53.490;14.376;2022-08-19T02:48:58;33.20;28.60;19.00
65556;PMS3003;52200;53.490;14.376;2022-08-19T02:51:31;31.00;28.00;18.00
65556;PMS3003;52200;53.490;14.376;2022-08-19T02:54:01;33.60;29.60;20.00
65556;PMS3003;52200;53.490;14.376;2022-08-19T02:56:28;35.00;29.40;19.00
65556;PMS3003;52200;53.490;14.376;2022-08-19T02:58:55;32.80;29.00;19.00
65556;PMS3003;52200;53.490;14.376;2022-08-19T03:01:26;38.60;31.80;21.00
65556;PMS3003;52200;53.490;14.376;2022-08-19T03:03:53;34.40;29.40;19.00
65556;PMS3003;52200;53.490;14.376;2022-08-19T03:06:20;36.20;30.80;20.00
65556;PMS3003;52200;53.490;14.376;2022-08-19T03:08:47;37.20;31.20;20.60
65556;PMS3003;52200;53.490;14.376;2022-08-19T03:11:21;39.20;31.60;21.20
65556;PMS3003;52200;53.490;14.376;2022-08-19T03:13:49;40.80;33.60;20.80
65556;PMS3003;52200;53.490;14.376;2022-08-19T03:16:16;37.40;31.20;20.60
65556;PMS3003;52200;53.490;14.376;2022-08-19T03:18:42;39.60;32.00;21.00
65556;PMS3003;52200;53.490;14.376;2022-08-19T03:21:08;35.75;29.75;20.25
65556;PMS3003;52200;53.490;14.376;2022-08-19T03:23:33;35.00;31.00;19.00
65556;PMS3003;52200;53.490;14.376;2022-08-19T03:26:02;34.40;29.00;19.80
65556;PMS3003;52200;53.490;14.376;2022-08-19T03:28:30;36.60;30.60;19.40
65556;PMS3003;52200;53.490;14.376;2022-08-19T03:30:58;37.80;30.80;20.60
65556;PMS3003;52200;53.490;14.376;2022-08-19T03:33:26;36.80;31.00;20.00
65556;PMS3003;52200;53.490;14.376;2022-08-19T03:36:03;35.00;31.00;20.60
65556;PMS3003;52200;53.490;14.376;2022-08-19T03:38:28;37.20;31.00;20.00
65556;PMS3003;52200;53.490;14.376;2022-08-19T03:40:54;35.25;29.25;18.75
65556;PMS3003;52200;53.490;14.376;2022-08-19T03:43:19;33.25;29.75;19.50
65556;PMS3003;52200;53.490;14.376;2022-08-19T03:45:45;33.00;28.50;19.00
65556;PMS3003;52200;53.490;14.376;2022-08-19T03:48:10;34.50;29.00;19.00
65556;PMS3003;52200;53.490;14.376;2022-08-19T03:50:39;29.00;25.50;18.00
65556;PMS3003;52200;53.490;14.376;2022-08-19T03:53:05;30.00;26.20;17.80
65556;PMS3003;52200;53.490;14.376;2022-08-19T03:55:32;32.00;25.80;18.20
65556;PMS3003;52200;53.490;14.376;2022-08-19T03:57:57;33.25;29.00;19.25
65556;PMS3003;52200;53.490;14.376;2022-08-19T04:00:23;33.00;28.50;18.25
65556;PMS3003;52200;53.490;14.376;2022-08-19T04:02:48;31.25;26.75;18.00
65556;PMS3003;52200;53.490;14.376;2022-08-19T04:05:14;30.75;26.75;19.00
65556;PMS3003;52200;53.490;14.376;2022-08-19T04:07:40;34.00;29.25;19.00
65556;PMS3003;52200;53.490;14.376;2022-08-19T04:10:05;35.00;30.25;19.25
65556;PMS3003;52200;53.490;14.376;2022-08-19T04:12:31;33.50;28.75;20.00
65556;PMS3003;52200;53.490;14.376;2022-08-19T04:14:56;29.50;26.00;18.50
65556;PMS3003;52200;53.490;14.376;2022-08-19T04:17:23;31.20;26.40;17.60
65556;PMS3003;52200;53.490;14.376;2022-08-19T04:19:48;32.25;28.50;19.00
65556;PMS3003;52200;53.490;14.376;2022-08-19T04:22:14;34.00;29.00;19.50
65556;PMS3003;52200;53.490;14.376;2022-08-19T04:24:39;28.75;25.00;17.50
65556;PMS3003;52200;53.490;14.376;2022-08-19T04:27:05;35.75;30.75;20.00
65556;PMS3003;52200;53.490;14.376;2022-08-19T04:29:31;35.25;29.75;19.00
65556;PMS3003;52200;53.490;14.376;2022-08-19T04:31:57;29.80;26.20;18.20
65556;PMS3003;52200;53.490;14.376;2022-08-19T04:34:25;32.20;28.20;19.40
65556;PMS3003;52200;53.490;14.376;2022-08-19T04:36:53;29.20;24.80;17.20
65556;PMS3003;52200;53.490;14.376;2022-08-19T04:39:21;30.80;27.80;17.00
65556;PMS3003;52200;53.490;14.376;2022-08-19T04:42:09;31.00;24.80;16.00
65556;PMS3003;52200;53.490;14.376;2022-08-19T04:44:53;30.00;26.20;16.80
65556;PMS3003;52200;53.490;14.376;2022-08-19T04:47:19;31.00;28.00;18.00
65556;PMS3003;52200;53.490;14.376;2022-08-19T04:49:44;33.75;29.00;19.25
65556;PMS3003;52200;53.490;14.376;2022-08-19T04:52:09;32.00;26.50;18.75
65556;PMS3003;52200;53.490;14.376;2022-08-19T04:54:35;30.25;25.50;17.00
65556;PMS3003;52200;53.490;14.376;2022-08-19T04:57:00;28.00;24.50;18.75
65556;PMS3003;52200;53.490;14.376;2022-08-19T04:59:26;29.00;25.25;17.00
65556;PMS3003;52200;53.490;14.376;2022-08-19T05:01:51;28.50;24.75;16.75
65556;PMS3003;52200;53.490;14.376;2022-08-19T05:04:20;32.50;28.00;18.50
65556;PMS3003;52200;53.490;14.376;2022-08-19T05:06:46;29.40;24.00;16.00
65556;PMS3003;52200;53.490;14.376;2022-08-19T05:09:13;33.80;28.40;19.00
65556;PMS3003;52200;53.490;14.376;2022-08-19T05:11:40;32.60;26.80;18.00
65556;PMS3003;52200;53.490;14.376;2022-08-19T05:14:06;27.00;23.00;16.00
65556;PMS3003;52200;53.490;14.376;2022-08-19T05:16:32;30.00;24.80;17.00
65556;PMS3003;52200;53.490;14.376;2022-08-19T05:18:58;32.00;26.00;18.00
65556;PMS3003;52200;53.490;14.376;2022-08-19T05:21:42;28.40;23.60;15.80
65556;PMS3003;52200;53.490;14.376;2022-08-19T05:24:26;29.20;25.20;18.00
65556;PMS3003;52200;53.490;14.376;2022-08-19T05:26:53;27.40;23.40;17.40
65556;PMS3003;52200;53.490;14.376;2022-08-19T05:29:21;27.60;23.60;16.60
65556;PMS3003;52200;53.490;14.376;2022-08-19T05:31:48;28.40;24.00;17.00
65556;PMS3003;52200;53.490;14.376;2022-08-19T05:34:15;27.00;22.80;16.00
65556;PMS3003;52200;53.490;14.376;2022-08-19T05:36:42;26.80;22.80;17.00
65556;PMS3003;52200;53.490;14.376;2022-08-19T05:39:11;29.60;25.80;17.00
65556;PMS3003;52200;53.490;14.376;2022-08-19T05:41:41;26.20;21.60;14.20
65556;PMS3003;52200;53.490;14.376;2022-08-19T05:44:11;29.80;23.80;15.60
65556;PMS3003;52200;53.490;14.376;2022-08-19T05:46:37;27.60;23.40;17.60
65556;PMS3003;52200;53.490;14.376;2022-08-19T05:49:04;27.80;25.00;16.00
65556;PMS3003;52200;53.490;14.376;2022-08-19T05:51:31;26.00;22.00;14.80
65556;PMS3003;52200;53.490;14.376;2022-08-19T05:53:59;29.60;25.20;18.00
65556;PMS3003;52200;53.490;14.376;2022-08-19T05:56:25;28.40;24.60;17.60
65556;PMS3003;52200;53.490;14.376;2022-08-19T05:58:50;27.00;23.75;17.75
65556;PMS3003;52200;53.490;14.376;2022-08-19T06:01:18;30.00;25.60;18.00
65556;PMS3003;52200;53.490;14.376;2022-08-19T06:03:43;27.25;23.75;16.75
65556;PMS3003;52200;53.490;14.376;2022-08-19T06:06:11;25.20;21.40;15.20
65556;PMS3003;52200;53.490;14.376;2022-08-19T06:08:38;33.40;29.40;19.00
65556;PMS3003;52200;53.490;14.376;2022-08-19T06:11:19;30.80;26.60;17.60
65556;PMS3003;52200;53.490;14.376;2022-08-19T06:13:53;29.40;25.80;17.40
65556;PMS3003;52200;53.490;14.376;2022-08-19T06:16:19;29.80;26.60;16.60
65556;PMS3003;52200;53.490;14.376;2022-08-19T06:18:47;26.80;23.40;16.80
65556;PMS3003;52200;53.490;14.376;2022-08-19T06:21:16;31.40;25.60;18.00
65556;PMS3003;52200;53.490;14.376;2022-08-19T06:23:43;30.00;25.80;18.60
65556;PMS3003;52200;53.490;14.376;2022-08-19T06:26:13;30.40;25.00;17.00
65556;PMS3003;52200;53.490;14.376;2022-08-19T06:28:39;30.60;26.00;17.20
65556;PMS3003;52200;53.490;14.376;2022-08-19T06:31:11;33.00;27.60;19.00
65556;PMS3003;52200;53.490;14.376;2022-08-19T06:33:47;28.20;25.20;16.40
65556;PMS3003;52200;53.490;14.376;2022-08-19T06:36:29;29.00;25.80;16.40
65556;PMS3003;52200;53.490;14.376;2022-08-19T06:38:59;31.60;28.20;18.20
65556;PMS3003;52200;53.490;14.376;2022-08-19T06:41:27;32.40;27.80;17.60
65556;PMS3003;52200;53.490;14.376;2022-08-19T06:43:54;28.40;24.00;16.00
65556;PMS3003;52200;53.490;14.376;2022-08-19T06:46:21;29.00;25.80;17.60
65556;PMS3003;52200;53.490;14.376;2022-08-19T06:48:47;32.20;28.40;18.40
65556;PMS3003;52200;53.490;14.376;2022-08-19T06:51:14;30.80;27.40;18.00
65556;PMS3003;52200;53.490;14.376;2022-08-19T06:53:43;30.00;25.60;17.60
65556;PMS3003;52200;53.490;14.376;2022-08-19T06:56:11;29.20;24.80;15.80
65556;PMS3003;52200;53.490;14.376;2022-08-19T06:58:37;28.20;24.40;17.00
65556;PMS3003;52200;53.490;14.376;2022-08-19T07:01:03;30.00;26.25;18.00
65556;PMS3003;52200;53.490;14.376;2022-08-19T07:03:30;29.00;23.40;16.40
65556;PMS3003;52200;53.490;14.376;2022-08-19T07:05:58;27.00;21.80;15.60
65556;PMS3003;52200;53.490;14.376;2022-08-19T07:08:32;26.60;23.00;15.60
65556;PMS3003;52200;53.490;14.376;2022-08-19T07:10:59;24.80;21.60;15.00
65556;PMS3003;52200;53.490;14.376;2022-08-19T07:13:25;29.00;26.40;16.40
65556;PMS3003;52200;53.490;14.376;2022-08-19T07:15:51;30.40;26.40;16.60
65556;PMS3003;52200;53.490;14.376;2022-08-19T07:18:17;28.00;24.00;17.00
65556;PMS3003;52200;53.490;14.376;2022-08-19T07:20:43;31.00;27.60;18.20
65556;PMS3003;52200;53.490;14.376;2022-08-19T07:23:09;29.50;26.75;17.50
65556;PMS3003;52200;53.490;14.376;2022-08-19T07:25:36;30.80;26.80;17.40
65556;PMS3003;52200;53.490;14.376;2022-08-19T07:28:02;28.80;23.20;16.60
65556;PMS3003;52200;53.490;14.376;2022-08-19T07:30:28;31.00;26.80;18.40
65556;PMS3003;52200;53.490;14.376;2022-08-19T07:32:53;39.50;30.50;19.00
65556;PMS3003;52200;53.490;14.376;2022-08-19T07:35:19;33.25;29.00;19.00
65556;PMS3003;52200;53.490;14.376;2022-08-19T07:37:45;33.80;30.00;19.00
65556;PMS3003;52200;53.490;14.376;2022-08-19T07:40:11;34.75;29.00;19.00
65556;PMS3003;52200;53.490;14.376;2022-08-19T07:42:38;32.60;27.80;18.40
65556;PMS3003;52200;53.490;14.376;2022-08-19T07:45:03;32.75;29.00;20.00
65556;PMS3003;52200;53.490;14.376;2022-08-19T07:47:31;31.40;25.20;17.80
65556;PMS3003;52200;53.490;14.376;2022-08-19T07:49:56;31.50;27.25;19.00
65556;PMS3003;52200;53.490;14.376;2022-08-19T07:52:22;32.50;29.00;18.50
65556;PMS3003;52200;53.490;14.376;2022-08-19T07:54:47;32.75;27.50;17.75
65556;PMS3003;52200;53.490;14.376;2022-08-19T07:57:14;33.40;29.00;19.00
65556;PMS3003;52200;53.490;14.376;2022-08-19T07:59:41;31.60;28.00;19.00
65556;PMS3003;52200;53.490;14.376;2022-08-19T08:02:07;27.75;24.00;17.75
65556;PMS3003;52200;53.490;14.376;2022-08-19T08:04:33;29.00;26.00;17.00
65556;PMS3003;52200;53.490;14.376;2022-08-19T08:07:25;30.20;27.00;18.00
65556;PMS3003;52200;53.490;14.376;2022-08-19T08:10:09;26.40;22.40;15.40
65556;PMS3003;52200;53.490;14.376;2022-08-19T08:12:37;30.00;26.25;16.25
65556;PMS3003;52200;53.490;14.376;2022-08-19T08:15:12;28.40;23.20;15.60
65556;PMS3003;52200;53.490;14.376;2022-08-19T08:17:43;26.60;23.40;16.20
65556;PMS3003;52200;53.490;14.376;2022-08-19T08:20:09;29.60;25.80;16.80
65556;PMS3003;52200;53.490;14.376;2022-08-19T08:22:36;28.20;24.40;15.80
65556;PMS3003;52200;53.490;14.376;2022-08-19T08:25:22;31.20;28.20;17.00
65556;PMS3003;52200;53.490;14.376;2022-08-19T08:27:48;29.80;23.60;16.60
65556;PMS3003;52200;53.490;14.376;2022-08-19T08:30:18;31.60;26.00;18.40
65556;PMS3003;52200;53.490;14.376;2022-08-19T08:32:46;30.20;25.60;17.20
65556;PMS3003;52200;53.490;14.376;2022-08-19T08:35:13;28.00;23.25;16.00
65556;PMS3003;52200;53.490;14.376;2022-08-19T08:37:41;28.00;21.80;16.80
65556;PMS3003;52200;53.490;14.376;2022-08-19T08:40:12;29.80;24.40;15.00
65556;PMS3003;52200;53.490;14.376;2022-08-19T08:42:51;29.60;25.60;16.60
65556;PMS3003;52200;53.490;14.376;2022-08-19T08:45:30;30.20;27.00;18.80
65556;PMS3003;52200;53.490;14.376;2022-08-19T08:48:01;28.00;23.60;16.20
65556;PMS3003;52200;53.490;14.376;2022-08-19T08:50:33;31.60;28.00;18.60
65556;PMS3003;52200;53.490;14.376;2022-08-19T08:53:05;29.40;25.40;18.80
65556;PMS3003;52200;53.490;14.376;2022-08-19T08:55:33;29.60;26.60;19.00
65556;PMS3003;52200;53.490;14.376;2022-08-19T08:58:06;28.40;25.40;15.80
65556;PMS3003;52200;53.490;14.376;2022-08-19T09:00:40;31.80;26.80;17.60
65556;PMS3003;52200;53.490;14.376;2022-08-19T09:03:14;29.80;24.60;15.80
65556;PMS3003;52200;53.490;14.376;2022-08-19T09:09:10;28.80;25.20;17.60
65556;PMS3003;52200;53.490;14.376;2022-08-19T09:17:12;27.20;24.40;16.00
65556;PMS3003;52200;53.490;14.376;2022-08-19T09:19:51;27.40;23.80;17.00
65556;PMS3003;52200;53.490;14.376;2022-08-19T09:22:18;27.20;25.00;17.20
65556;PMS3003;52200;53.490;14.376;2022-08-19T09:24:46;30.80;27.60;18.80
65556;PMS3003;52200;53.490;14.376;2022-08-19T09:27:13;28.20;25.40;17.00
65556;PMS3003;52200;53.490;14.376;2022-08-19T09:29:38;30.75;27.00;18.50
65556;PMS3003;52200;53.490;14.376;2022-08-19T09:32:04;28.00;24.25;17.25
65556;PMS3003;52200;53.490;14.376;2022-08-19T09:34:29;27.00;23.25;15.00
65556;PMS3003;52200;53.490;14.376;2022-08-19T09:36:57;31.80;27.00;18.60
65556;PMS3003;52200;53.490;14.376;2022-08-19T09:39:23;27.80;24.00;16.40
65556;PMS3003;52200;53.490;14.376;2022-08-19T09:41:49;28.75;25.25;17.00
65556;PMS3003;52200;53.490;14.376;2022-08-19T09:44:14;32.25;28.75;18.00
65556;PMS3003;52200;53.490;14.376;2022-08-19T09:46:40;30.20;27.20;17.00
65556;PMS3003;52200;53.490;14.376;2022-08-19T09:49:06;31.00;27.00;18.00
65556;PMS3003;52200;53.490;14.376;2022-08-19T09:51:32;29.25;26.25;18.50
65556;PMS3003;52200;53.490;14.376;2022-08-19T09:53:59;31.60;27.80;18.40
65556;PMS3003;52200;53.490;14.376;2022-08-19T09:56:26;30.60;26.40;17.20
65556;PMS3003;52200;53.490;14.376;2022-08-19T09:58:52;33.40;28.60;18.40
65556;PMS3003;52200;53.490;14.376;2022-08-19T10:01:19;33.50;28.75;19.00
65556;PMS3003;52200;53.490;14.376;2022-08-19T10:03:48;29.60;25.60;16.80
65556;PMS3003;52200;53.490;14.376;2022-08-19T10:06:17;31.60;28.40;19.00
65556;PMS3003;52200;53.490;14.376;2022-08-19T10:08:43;33.00;29.00;18.60
65556;PMS3003;52200;53.490;14.376;2022-08-19T10:11:09;31.80;28.20;18.60
65556;PMS3003;52200;53.490;14.376;2022-08-19T10:13:35;28.75;24.50;16.50
65556;PMS3003;52200;53.490;14.376;2022-08-19T10:16:05;28.00;24.00;16.20
65556;PMS3003;52200;53.490;14.376;2022-08-19T10:18:33;31.00;27.20;17.20
65556;PMS3003;52200;53.490;14.376;2022-08-19T10:21:07;30.60;26.00;17.00
65556;PMS3003;52200;53.490;14.376;2022-08-19T10:23:42;30.60;26.60;18.80
65556;PMS3003;52200;53.490;14.376;2022-08-19T10:26:10;29.40;24.20;16.00
65556;PMS3003;52200;53.490;14.376;2022-08-19T10:28:37;28.40;25.40;17.60
65556;PMS3003;52200;53.490;14.376;2022-08-19T10:31:06;26.75;22.75;17.75
65556;PMS3003;52200;53.490;14.376;2022-08-19T10:33:36;29.20;25.20;17.20
65556;PMS3003;52200;53.490;14.376;2022-08-19T10:36:04;34.80;29.40;18.40
65556;PMS3003;52200;53.490;14.376;2022-08-19T10:38:32;28.80;25.00;17.60
65556;PMS3003;52200;53.490;14.376;2022-08-19T10:41:06;35.00;28.80;19.00
65556;PMS3003;52200;53.490;14.376;2022-08-19T10:43:32;30.00;26.60;17.40
65556;PMS3003;52200;53.490;14.376;2022-08-19T10:46:00;33.20;28.80;19.00
65556;PMS3003;52200;53.490;14.376;2022-08-19T10:48:26;31.00;24.25;17.00
65556;PMS3003;52200;53.490;14.376;2022-08-19T10:50:51;33.75;29.00;19.00
65556;PMS3003;52200;53.490;14.376;2022-08-19T10:53:49;33.40;29.00;18.60
65556;PMS3003;52200;53.490;14.376;2022-08-19T10:56:15;31.00;27.40;18.40
65556;PMS3003;52200;53.490;14.376;2022-08-19T10:58:59;30.00;26.60;18.40
65556;PMS3003;52200;53.490;14.376;2022-08-19T11:01:26;29.75;26.50;18.75
65556;PMS3003;52200;53.490;14.376;2022-08-19T11:03:51;32.00;27.20;18.00
65556;PMS3003;52200;53.490;14.376;2022-08-19T11:06:17;35.00;28.25;18.75
65556;PMS3003;52200;53.490;14.376;2022-08-19T11:08:44;32.00;27.60;19.00
65556;PMS3003;52200;53.490;14.376;2022-08-19T11:11:10;34.80;28.80;19.00
65556;PMS3003;52200;53.490;14.376;2022-08-19T11:13:37;30.20;27.20;18.00
65556;PMS3003;52200;53.490;14.376;2022-08-19T11:16:09;32.20;28.00;18.80
65556;PMS3003;52200;53.490;14.376;2022-08-19T11:18:39;34.60;29.00;19.00
65556;PMS3003;52200;53.490;14.376;2022-08-19T11:21:12;32.40;26.20;18.00
65556;PMS3003;52200;53.490;14.376;2022-08-19T11:23:39;33.40;28.80;18.60
65556;PMS3003;52200;53.490;14.376;2022-08-19T11:26:05;34.00;28.60;19.00
65556;PMS3003;52200;53.490;14.376;2022-08-19T11:28:31;30.20;25.40;18.20
65556;PMS3003;52200;53.490;14.376;2022-08-19T11:30:56;30.25;26.00;17.00
65556;PMS3003;52200;53.490;14.376;2022-08-19T11:33:22;30.25;25.25;18.00
65556;PMS3003;52200;53.490;14.376;2022-08-19T11:35:47;32.75;28.50;18.50
65556;PMS3003;52200;53.490;14.376;2022-08-19T11:38:14;33.20;27.80;19.00
65556;PMS3003;52200;53.490;14.376;2022-08-19T11:40:39;29.75;26.00;18.00
65556;PMS3003;52200;53.490;14.376;2022-08-19T11:43:07;33.20;28.60;19.00
65556;PMS3003;52200;53.490;14.376;2022-08-19T11:45:33;33.00;28.80;19.00
65556;PMS3003;52200;53.490;14.376;2022-08-19T11:47:59;31.50;28.00;18.75
65556;PMS3003;52200;53.490;14.376;2022-08-19T11:50:24;26.75;23.25;16.00
65556;PMS3003;52200;53.490;14.376;2022-08-19T11:52:50;29.00;25.50;17.00
65556;PMS3003;52200;53.490;14.376;2022-08-19T11:55:19;29.00;23.80;15.80
65556;PMS3003;52200;53.490;14.376;2022-08-19T11:57:45;31.75;25.75;17.50
65556;PMS3003;52200;53.490;14.376;2022-08-19T12:00:10;29.75;26.50;18.00
65556;PMS3003;52200;53.490;14.376;2022-08-19T12:02:38;28.00;24.00;18.00
65556;PMS3003;52200;53.490;14.376;2022-08-19T12:05:04;31.20;26.60;17.80
65556;PMS3003;52200;53.490;14.376;2022-08-19T12:07:30;28.20;24.80;17.20
65556;PMS3003;52200;53.490;14.376;2022-08-19T12:09:59;27.80;24.60;16.40
65556;PMS3003;52200;53.490;14.376;2022-08-19T12:12:25;29.40;25.80;16.40
65556;PMS3003;52200;53.490;14.376;2022-08-19T12:14:52;26.20;21.80;16.20
65556;PMS3003;52200;53.490;14.376;2022-08-19T12:17:25;27.60;23.80;16.80
65556;PMS3003;52200;53.490;14.376;2022-08-19T12:19:51;30.60;25.40;18.20
65556;PMS3003;52200;53.490;14.376;2022-08-19T12:22:17;27.75;23.25;16.00
65556;PMS3003;52200;53.490;14.376;2022-08-19T12:24:43;27.00;22.80;16.80
65556;PMS3003;52200;53.490;14.376;2022-08-19T12:27:08;28.75;25.75;19.00
65556;PMS3003;52200;53.490;14.376;2022-08-19T12:29:34;27.00;23.00;15.75
65556;PMS3003;52200;53.490;14.376;2022-08-19T12:31:59;25.50;22.00;17.00
65556;PMS3003;52200;53.490;14.376;2022-08-19T12:34:27;26.40;22.80;15.60
65556;PMS3003;52200;53.490;14.376;2022-08-19T12:36:58;29.00;24.40;17.40
65556;PMS3003;52200;53.490;14.376;2022-08-19T12:39:26;26.20;22.00;16.60
65556;PMS3003;52200;53.490;14.376;2022-08-19T12:41:52;30.25;25.50;16.25
65556;PMS3003;52200;53.490;14.376;2022-08-19T12:44:17;25.00;22.00;15.75
65556;PMS3003;52200;53.490;14.376;2022-08-19T12:46:44;30.60;26.00;16.60
65556;PMS3003;52200;53.490;14.376;2022-08-19T12:49:09;27.75;24.75;17.50
65556;PMS3003;52200;53.490;14.376;2022-08-19T12:51:35;30.50;26.50;17.75
65556;PMS3003;52200;53.490;14.376;2022-08-19T12:54:00;32.00;27.00;18.25
65556;PMS3003;52200;53.490;14.376;2022-08-19T12:56:26;27.60;23.00;16.60
65556;PMS3003;52200;53.490;14.376;2022-08-19T12:58:52;27.75;25.00;18.00
65556;PMS3003;52200;53.490;14.376;2022-08-19T13:01:18;29.00;25.75;18.75
65556;PMS3003;52200;53.490;14.376;2022-08-19T13:03:44;25.40;21.60;16.00
65556;PMS3003;52200;53.490;14.376;2022-08-19T13:06:10;32.00;28.20;19.00
65556;PMS3003;52200;53.490;14.376;2022-08-19T13:08:36;28.80;25.40;17.20
65556;PMS3003;52200;53.490;14.376;2022-08-19T13:11:10;27.80;24.80;17.60
65556;PMS3003;52200;53.490;14.376;2022-08-19T13:13:38;31.40;26.80;18.20
65556;PMS3003;52200;53.490;14.376;2022-08-19T13:16:09;29.00;26.00;18.80
65556;PMS3003;52200;53.490;14.376;2022-08-19T13:18:36;31.00;27.00;18.80
65556;PMS3003;52200;53.490;14.376;2022-08-19T13:21:04;29.20;26.00;18.20
65556;PMS3003;52200;53.490;14.376;2022-08-19T13:23:31;29.00;25.60;18.80
65556;PMS3003;52200;53.490;14.376;2022-08-19T13:25:59;30.00;26.60;17.60
65556;PMS3003;52200;53.490;14.376;2022-08-19T13:28:27;30.80;25.60;17.80
65556;PMS3003;52200;53.490;14.376;2022-08-19T13:31:14;30.00;26.40;17.20
65556;PMS3003;52200;53.490;14.376;2022-08-19T13:34:00;30.20;25.40;19.00
65556;PMS3003;52200;53.490;14.376;2022-08-19T13:36:25;33.00;26.40;19.00
65556;PMS3003;52200;53.490;14.376;2022-08-19T13:38:51;35.00;30.00;20.00
65556;PMS3003;52200;53.490;14.376;2022-08-19T13:41:16;33.25;27.00;19.00
65556;PMS3003;52200;53.490;14.376;2022-08-19T13:43:44;28.00;24.80;19.00
65556;PMS3003;52200;53.490;14.376;2022-08-19T13:46:10;31.00;27.50;19.00
65556;PMS3003;52200;53.490;14.376;2022-08-19T13:48:39;31.60;28.40;19.00